createdAt,value
2019-02-16T06:15:33.294Z,67.71
2019-02-16T06:20:41.043Z,68.10
2019-02-16T06:25:47.205Z,68.02
2019-02-16T06:30:53.189Z,67.55
2019-02-16T06:36:18.412Z,66.98
2019-02-16T06:41:27.502Z,67.69
2019-02-16T06:46:33.175Z,66.88
2019-02-16T06:51:41.368Z,67.37
2019-02-16T06:57:05.990Z,66.79
2019-02-16T07:02:17.048Z,67.26
2019-02-16T07:07:25.209Z,67.07
2019-02-16T07:12:33.389Z,66.73
2019-02-16T07:17:58.401Z,66.67
2019-02-16T07:23:06.054Z,65.93
2019-02-16T07:28:11.677Z,63.73
2019-02-16T07:33:20.520Z,63.54
2019-02-16T07:38:28.283Z,63.05
2019-02-16T07:43:53.248Z,62.86
2019-02-16T07:49:23.244Z,61.93
2019-02-16T07:54:57.014Z,61.48
2019-02-16T08:00:16.619Z,62.40
2019-02-16T08:05:47.003Z,61.51
2019-02-16T08:11:03.875Z,60.67
2019-02-16T08:16:32.930Z,59.74
2019-02-16T08:21:52.654Z,59.64
2019-02-16T08:27:17.441Z,58.13
2019-02-16T08:32:42.599Z,57.71
2019-02-16T08:38:17.457Z,56.00
2019-02-16T08:43:38.424Z,55.39
2019-02-16T08:48:55.192Z,54.16
2019-02-16T08:54:31.122Z,55.29
2019-02-16T09:00:10.631Z,53.65
2019-02-16T09:05:47.028Z,52.82
2019-02-16T09:11:16.000Z,52.81
2019-02-16T09:16:32.880Z,50.30
2019-02-16T09:21:58.628Z,50.06
2019-02-16T09:27:30.486Z,47.75
2019-02-16T09:32:58.143Z,49.95
2019-02-16T09:38:32.764Z,49.90
2019-02-16T09:44:00.064Z,47.79
2019-02-16T09:49:24.545Z,48.20
2019-02-16T09:54:50.251Z,47.61
2019-02-16T10:00:17.660Z,44.71
2019-02-16T10:05:43.648Z,44.16
2019-02-16T10:11:12.533Z,43.43
2019-02-16T10:16:37.114Z,42.20
2019-02-16T10:22:00.247Z,42.27
2019-02-16T10:27:37.982Z,39.81
2019-02-16T10:33:04.946Z,42.60
2019-02-16T10:38:45.304Z,43.21
2019-02-16T10:44:09.768Z,44.09
2019-02-16T10:49:34.173Z,44.31
2019-02-16T10:54:58.611Z,43.55
2019-02-16T11:00:17.766Z,43.29
2019-02-16T11:05:48.889Z,43.14
2019-02-16T11:11:29.435Z,42.12
2019-02-16T11:16:55.770Z,41.57
2019-02-16T11:22:29.511Z,39.88
2019-02-16T11:27:59.064Z,39.38
2019-02-16T11:33:14.237Z,40.00
2019-02-16T11:38:33.620Z,39.41
2019-02-16T11:44:05.074Z,39.01
2019-02-16T11:49:42.674Z,40.52
2019-02-16T11:55:04.434Z,40.76
2019-02-16T12:00:30.642Z,40.22
2019-02-16T12:05:43.493Z,40.97
2019-02-16T12:11:07.702Z,40.97
2019-02-16T12:16:42.262Z,40.50
2019-02-16T12:21:56.007Z,39.11
2019-02-16T12:27:16.016Z,40.33
2019-02-16T12:32:48.369Z,39.85
2019-02-16T12:38:03.360Z,39.02
2019-02-16T12:43:26.397Z,38.96
2019-02-16T12:48:38.600Z,38.67
2019-02-16T12:54:05.046Z,37.44
2019-02-16T12:59:31.645Z,36.55
2019-02-16T13:05:01.245Z,37.02
2019-02-16T13:10:47.193Z,37.29
2019-02-16T13:16:06.445Z,37.13
2019-02-16T13:21:26.778Z,35.85
2019-02-16T13:26:57.278Z,32.78
2019-02-16T13:32:39.881Z,34.16
2019-02-16T13:38:03.535Z,33.96
2019-02-16T13:43:43.257Z,29.67
2019-02-16T13:49:08.813Z,30.50
2019-02-16T13:54:25.098Z,28.35
2019-02-16T13:59:55.168Z,26.29
2019-02-16T14:05:19.659Z,28.58
2019-02-16T14:10:45.988Z,29.42
2019-02-16T14:16:11.778Z,30.60
2019-02-16T14:21:23.593Z,28.26
2019-02-16T14:26:29.495Z,29.49
2019-02-16T14:31:37.020Z,30.25
2019-02-16T14:36:43.712Z,30.64
2019-02-16T14:41:49.493Z,28.69
2019-02-16T14:47:00.807Z,30.71
2019-02-16T14:52:08.518Z,29.27
2019-02-16T14:57:17.083Z,31.21
2019-02-16T15:02:29.679Z,30.39
2019-02-16T15:07:35.432Z,31.72
2019-02-16T15:12:41.124Z,31.33
2019-02-16T15:17:47.010Z,32.44
2019-02-16T15:22:52.693Z,32.41
2019-02-16T15:28:06.087Z,32.89
2019-02-16T15:33:14.054Z,33.41
2019-02-16T15:38:21.031Z,34.00
2019-02-16T15:43:30.435Z,36.80
2019-02-16T15:48:41.053Z,37.58
2019-02-16T15:53:47.716Z,38.99
2019-02-16T15:58:54.860Z,40.20
2019-02-16T16:04:05.526Z,40.35
2019-02-16T16:09:34.517Z,40.69
2019-02-16T16:15:08.551Z,41.02
2019-02-16T16:20:38.700Z,41.81
2019-02-16T16:25:53.854Z,42.33
2019-02-16T16:31:27.749Z,42.34
2019-02-16T16:36:44.620Z,42.75
2019-02-16T16:42:09.256Z,43.26
2019-02-16T16:47:32.876Z,44.81
2019-02-16T16:52:58.367Z,45.17
2019-02-16T16:58:38.259Z,46.15
2019-02-16T17:04:07.887Z,45.49
2019-02-16T17:09:22.898Z,45.59
2019-02-16T17:14:46.066Z,45.66
2019-02-16T17:20:01.662Z,46.49
2019-02-16T17:25:20.926Z,47.05
2019-02-16T17:30:43.060Z,47.23
2019-02-16T17:36:04.875Z,47.87
2019-02-16T17:41:32.583Z,48.11
2019-02-16T17:47:04.426Z,47.31
2019-02-16T17:52:49.789Z,47.23
2019-02-16T17:58:23.537Z,46.97
2019-02-16T18:03:47.212Z,48.04
2019-02-16T18:09:20.224Z,48.26
2019-02-16T18:14:48.299Z,48.72
2019-02-16T18:20:17.526Z,48.78
2019-02-16T18:26:05.179Z,50.44
2019-02-16T18:31:39.135Z,48.97
2019-02-16T18:37:04.136Z,49.61
2019-02-16T18:42:27.808Z,50.42
2019-02-16T18:47:59.170Z,50.25
2019-02-16T18:53:27.809Z,49.93
2019-02-16T18:59:04.307Z,50.33
2019-02-16T19:04:33.209Z,50.86
2019-02-16T19:10:06.101Z,51.21
2019-02-16T19:15:38.901Z,51.18
2019-02-16T19:21:03.389Z,51.08
2019-02-16T19:26:40.483Z,51.10
2019-02-16T19:32:06.734Z,51.00
2019-02-16T19:37:51.317Z,51.32
2019-02-16T19:43:19.059Z,51.86
2019-02-16T19:49:00.908Z,51.67
2019-02-16T19:54:39.394Z,51.69
2019-02-16T20:00:03.534Z,52.18
2019-02-16T20:05:29.882Z,52.78
2019-02-16T20:10:58.675Z,54.16
2019-02-16T20:16:25.007Z,53.76
2019-02-16T20:22:01.351Z,53.93
2019-02-16T20:27:37.034Z,54.03
2019-02-16T20:33:09.760Z,53.40
2019-02-16T20:38:40.646Z,53.64
2019-02-16T20:44:14.067Z,53.73
2019-02-16T20:49:55.322Z,54.12
2019-02-16T20:55:25.701Z,54.17
2019-02-16T21:00:52.155Z,54.09
2019-02-16T21:06:25.788Z,53.83
2019-02-16T21:11:49.916Z,55.10
2019-02-16T21:17:15.855Z,55.36
2019-02-16T21:23:02.700Z,55.71
2019-02-16T21:28:44.967Z,55.71
2019-02-16T21:34:03.906Z,56.20
2019-02-16T21:39:28.962Z,57.07
2019-02-16T21:44:45.852Z,57.04
2019-02-16T21:50:06.532Z,56.32
2019-02-16T21:55:40.545Z,57.59
2019-02-16T22:01:11.390Z,57.70
2019-02-16T22:06:41.749Z,57.39
2019-02-16T22:12:25.888Z,58.54
2019-02-16T22:17:32.315Z,58.54
2019-02-16T22:22:43.427Z,58.10
2019-02-16T22:27:53.236Z,57.69
2019-02-16T22:33:02.609Z,57.21
2019-02-16T22:38:08.355Z,57.88
2019-02-16T22:43:14.102Z,57.88
2019-02-16T22:48:26.500Z,57.84
2019-02-16T22:53:34.322Z,58.93
2019-02-16T22:58:42.410Z,58.93
2019-02-16T23:03:48.222Z,58.08
2019-02-16T23:08:56.095Z,59.61
2019-02-16T23:14:06.987Z,60.23
2019-02-16T23:19:12.674Z,60.35
2019-02-16T23:24:23.051Z,60.01
2019-02-16T23:29:35.731Z,60.27
2019-02-16T23:34:41.205Z,59.76
2019-02-16T23:39:46.822Z,59.57
2019-02-16T23:44:52.981Z,60.09
2019-02-16T23:56:33.202Z,60.87
